Greenfield Center, New York
Current Conditions -  °F | °C
As of 9:53 PM on Friday 28 Nov 2014 (Local Time) from KGFL Reporting Station
Clear Clear  
Wind Chill: 12°   Ceiling: Unl
Heat Index: 12°   Visibility: 10mi
Dew Point:   Wind: 0mph
Humidity: 88%   Direction: NA
Pressure: 30.22"   Gusts: NA
Location:  43.13°N, 73.85°W
Report Text: KGFL 290253Z AUTO 00000KT 10SM CLR M11/M13 A3022 RMK AO2 SLP243 I1000 I3000 T11111128 52007
Loading
Personal Weather Stations






























Interactive Weather Map New forecast layout! Learn more

10-Day Weather Forecast

Advertisements
Track Severe Weather on mobile